sensor_id;sensor_type;location;lat;lon;timestamp;pressure;altitude;pressure_sealevel;temperature;humidity
64192;BME280;50497;50.720;-2.084;2023-11-21T00:01:50;102151.53;;;9.12;100.00
64192;BME280;50497;50.720;-2.084;2023-11-21T00:04:15;102165.75;;;9.12;100.00
64192;BME280;50497;50.720;-2.084;2023-11-21T00:06:41;102170.09;;;9.18;100.00
64192;BME280;50497;50.720;-2.084;2023-11-21T00:09:06;102186.84;;;9.26;100.00
64192;BME280;50497;50.720;-2.084;2023-11-21T00:11:33;102194.91;;;9.23;100.00
64192;BME280;50497;50.720;-2.084;2023-11-21T00:13:59;102191.41;;;9.21;100.00
64192;BME280;50497;50.720;-2.084;2023-11-21T00:16:24;102210.09;;;9.21;100.00
64192;BME280;50497;50.720;-2.084;2023-11-21T00:18:50;102216.25;;;9.24;100.00
64192;BME280;50497;50.720;-2.084;2023-11-21T00:21:16;102227.84;;;9.25;100.00
64192;BME280;50497;50.720;-2.084;2023-11-21T00:23:42;102236.97;;;9.12;100.00
64192;BME280;50497;50.720;-2.084;2023-11-21T00:26:07;102237.09;;;9.04;100.00
64192;BME280;50497;50.720;-2.084;2023-11-21T00:28:33;102256.63;;;9.06;100.00
64192;BME280;50497;50.720;-2.084;2023-11-21T00:30:58;102262.13;;;8.98;100.00
64192;BME280;50497;50.720;-2.084;2023-11-21T00:33:23;102283.53;;;8.95;100.00
64192;BME280;50497;50.720;-2.084;2023-11-21T00:35:50;102296.06;;;8.90;100.00
64192;BME280;50497;50.720;-2.084;2023-11-21T00:38:15;102297.00;;;8.84;100.00
64192;BME280;50497;50.720;-2.084;2023-11-21T00:40:43;102297.00;;;8.86;100.00
64192;BME280;50497;50.720;-2.084;2023-11-21T00:43:08;102335.91;;;9.02;100.00
64192;BME280;50497;50.720;-2.084;2023-11-21T00:45:34;102348.34;;;9.05;100.00
64192;BME280;50497;50.720;-2.084;2023-11-21T00:48:00;102367.91;;;9.05;100.00
64192;BME280;50497;50.720;-2.084;2023-11-21T00:50:25;102380.34;;;9.08;100.00
64192;BME280;50497;50.720;-2.084;2023-11-21T00:52:51;102391.00;;;9.08;100.00
64192;BME280;50497;50.720;-2.084;2023-11-21T00:55:16;102393.69;;;9.06;100.00
64192;BME280;50497;50.720;-2.084;2023-11-21T00:57:43;102415.75;;;9.18;100.00
64192;BME280;50497;50.720;-2.084;2023-11-21T01:00:08;102432.53;;;9.29;100.00
64192;BME280;50497;50.720;-2.084;2023-11-21T01:19:56;102464.88;;;9.07;100.00
64192;BME280;50497;50.720;-2.084;2023-11-21T01:22:22;102458.75;;;8.98;100.00
64192;BME280;50497;50.720;-2.084;2023-11-21T01:24:51;102479.25;;;8.97;100.00
64192;BME280;50497;50.720;-2.084;2023-11-21T01:27:17;102488.09;;;9.01;100.00
64192;BME280;50497;50.720;-2.084;2023-11-21T01:29:43;102489.06;;;8.95;100.00
64192;BME280;50497;50.720;-2.084;2023-11-21T01:32:10;102498.09;;;8.86;100.00
64192;BME280;50497;50.720;-2.084;2023-11-21T01:34:35;102512.16;;;8.98;100.00
64192;BME280;50497;50.720;-2.084;2023-11-21T01:37:01;102527.38;;;8.90;100.00
64192;BME280;50497;50.720;-2.084;2023-11-21T01:39:26;102518.59;;;8.80;100.00
64192;BME280;50497;50.720;-2.084;2023-11-21T01:41:52;102550.53;;;8.87;100.00
64192;BME280;50497;50.720;-2.084;2023-11-21T01:44:17;102559.53;;;8.82;100.00
64192;BME280;50497;50.720;-2.084;2023-11-21T01:46:45;102580.94;;;8.76;100.00
64192;BME280;50497;50.720;-2.084;2023-11-21T01:49:11;102604.06;;;8.77;100.00
64192;BME280;50497;50.720;-2.084;2023-11-21T01:51:38;102621.81;;;8.78;100.00
64192;BME280;50497;50.720;-2.084;2023-11-21T01:54:04;102648.44;;;8.88;100.00
64192;BME280;50497;50.720;-2.084;2023-11-21T01:56:31;102642.25;;;8.85;100.00
64192;BME280;50497;50.720;-2.084;2023-11-21T01:58:57;102696.31;;;9.04;100.00
64192;BME280;50497;50.720;-2.084;2023-11-21T02:01:23;102717.59;;;9.15;100.00
64192;BME280;50497;50.720;-2.084;2023-11-21T02:03:48;102717.53;;;9.18;100.00
64192;BME280;50497;50.720;-2.084;2023-11-21T02:06:14;102724.63;;;9.22;100.00
64192;BME280;50497;50.720;-2.084;2023-11-21T02:08:39;102717.53;;;9.19;100.00
64192;BME280;50497;50.720;-2.084;2023-11-21T02:11:05;102732.50;;;9.34;100.00
64192;BME280;50497;50.720;-2.084;2023-11-21T02:13:31;102720.94;;;9.37;100.00
64192;BME280;50497;50.720;-2.084;2023-11-21T02:15:57;102712.84;;;9.43;100.00
64192;BME280;50497;50.720;-2.084;2023-11-21T02:18:23;102715.38;;;9.54;100.00
64192;BME280;50497;50.720;-2.084;2023-11-21T02:20:48;102699.38;;;9.52;100.00
64192;BME280;50497;50.720;-2.084;2023-11-21T02:23:14;102686.88;;;9.54;100.00
64192;BME280;50497;50.720;-2.084;2023-11-21T02:25:39;102681.44;;;9.62;100.00
64192;BME280;50497;50.720;-2.084;2023-11-21T02:28:05;102661.91;;;9.57;100.00
64192;BME280;50497;50.720;-2.084;2023-11-21T02:30:32;102674.22;;;9.69;100.00
64192;BME280;50497;50.720;-2.084;2023-11-21T02:32:57;102662.63;;;9.71;100.00
64192;BME280;50497;50.720;-2.084;2023-11-21T02:35:23;102660.84;;;9.72;100.00
64192;BME280;50497;50.720;-2.084;2023-11-21T02:37:51;102636.81;;;9.67;100.00
64192;BME280;50497;50.720;-2.084;2023-11-21T02:40:17;102643.84;;;9.74;100.00
64192;BME280;50497;50.720;-2.084;2023-11-21T02:42:48;102641.16;;;9.76;100.00
64192;BME280;50497;50.720;-2.084;2023-11-21T02:45:17;102632.25;;;9.77;100.00
64192;BME280;50497;50.720;-2.084;2023-11-21T02:47:42;102637.59;;;9.77;100.00
64192;BME280;50497;50.720;-2.084;2023-11-21T02:50:08;102626.09;;;9.70;100.00
64192;BME280;50497;50.720;-2.084;2023-11-21T02:52:35;102631.47;;;9.67;100.00
64192;BME280;50497;50.720;-2.084;2023-11-21T02:55:01;102659.94;;;9.73;100.00
64192;BME280;50497;50.720;-2.084;2023-11-21T02:57:26;102679.50;;;9.76;100.00
64192;BME280;50497;50.720;-2.084;2023-11-21T02:59:52;102671.56;;;9.67;100.00
64192;BME280;50497;50.720;-2.084;2023-11-21T03:02:17;102694.63;;;9.74;100.00
64192;BME280;50497;50.720;-2.084;2023-11-21T03:04:42;102710.72;;;9.73;100.00
64192;BME280;50497;50.720;-2.084;2023-11-21T03:07:08;102733.91;;;9.71;100.00
64192;BME280;50497;50.720;-2.084;2023-11-21T03:09:34;102748.16;;;9.71;100.00
64192;BME280;50497;50.720;-2.084;2023-11-21T03:12:00;102764.13;;;9.76;100.00
64192;BME280;50497;50.720;-2.084;2023-11-21T03:14:25;102782.91;;;9.71;100.00
64192;BME280;50497;50.720;-2.084;2023-11-21T03:16:50;102784.81;;;9.60;100.00
64192;BME280;50497;50.720;-2.084;2023-11-21T03:19:16;102782.16;;;9.57;100.00
64192;BME280;50497;50.720;-2.084;2023-11-21T03:21:42;102815.88;;;9.72;100.00
64192;BME280;50497;50.720;-2.084;2023-11-21T03:24:07;102838.09;;;9.75;100.00
64192;BME280;50497;50.720;-2.084;2023-11-21T03:26:33;102843.47;;;9.72;100.00
64192;BME280;50497;50.720;-2.084;2023-11-21T03:28:58;102863.09;;;9.73;100.00
64192;BME280;50497;50.720;-2.084;2023-11-21T03:31:24;102868.47;;;9.68;100.00
64192;BME280;50497;50.720;-2.084;2023-11-21T03:33:49;102882.69;;;9.70;100.00
64192;BME280;50497;50.720;-2.084;2023-11-21T03:36:14;102890.72;;;9.70;100.00
64192;BME280;50497;50.720;-2.084;2023-11-21T03:38:40;102906.75;;;9.70;100.00
64192;BME280;50497;50.720;-2.084;2023-11-21T03:41:06;102914.81;;;9.66;100.00
64192;BME280;50497;50.720;-2.084;2023-11-21T03:43:32;102915.78;;;9.60;100.00
64192;BME280;50497;50.720;-2.084;2023-11-21T03:45:57;102941.59;;;9.59;100.00
64192;BME280;50497;50.720;-2.084;2023-11-21T03:48:22;102963.84;;;9.65;100.00
64192;BME280;50497;50.720;-2.084;2023-11-21T03:50:48;102980.78;;;9.64;100.00
64192;BME280;50497;50.720;-2.084;2023-11-21T03:53:14;103003.00;;;9.69;100.00
64192;BME280;50497;50.720;-2.084;2023-11-21T03:55:39;103003.00;;;9.69;100.00
64192;BME280;50497;50.720;-2.084;2023-11-21T03:58:04;103027.06;;;9.69;100.00
64192;BME280;50497;50.720;-2.084;2023-11-21T04:00:30;103039.53;;;9.71;100.00
64192;BME280;50497;50.720;-2.084;2023-11-21T04:02:56;103057.31;;;9.72;100.00
64192;BME280;50497;50.720;-2.084;2023-11-21T04:05:21;103070.69;;;9.72;100.00
64192;BME280;50497;50.720;-2.084;2023-11-21T04:07:49;103078.69;;;9.75;100.00
64192;BME280;50497;50.720;-2.084;2023-11-21T04:10:15;103084.03;;;9.77;100.00
64192;BME280;50497;50.720;-2.084;2023-11-21T04:12:41;103091.16;;;9.78;100.00
64192;BME280;50497;50.720;-2.084;2023-11-21T04:15:06;103107.22;;;9.78;100.00
64192;BME280;50497;50.720;-2.084;2023-11-21T04:17:34;103109.88;;;9.79;100.00
64192;BME280;50497;50.720;-2.084;2023-11-21T04:19:59;103106.31;;;9.74;100.00
64192;BME280;50497;50.720;-2.084;2023-11-21T04:22:24;103121.38;;;9.88;100.00
64192;BME280;50497;50.720;-2.084;2023-11-21T04:24:50;103120.59;;;9.78;100.00
64192;BME280;50497;50.720;-2.084;2023-11-21T04:27:15;103120.53;;;9.81;100.00
64192;BME280;50497;50.720;-2.084;2023-11-21T04:29:43;103119.66;;;9.80;100.00
64192;BME280;50497;50.720;-2.084;2023-11-21T04:32:09;103124.09;;;9.86;100.00
64192;BME280;50497;50.720;-2.084;2023-11-21T04:34:34;103116.97;;;9.80;100.00
64192;BME280;50497;50.720;-2.084;2023-11-21T04:37:00;103108.97;;;9.80;100.00
64192;BME280;50497;50.720;-2.084;2023-11-21T04:39:25;103106.25;;;9.90;100.00
64192;BME280;50497;50.720;-2.084;2023-11-21T04:41:51;103088.41;;;9.89;100.00
64192;BME280;50497;50.720;-2.084;2023-11-21T04:44:16;103085.72;;;9.92;100.00
64192;BME280;50497;50.720;-2.084;2023-11-21T04:46:42;103076.84;;;9.87;100.00
64192;BME280;50497;50.720;-2.084;2023-11-21T04:49:07;103076.81;;;9.93;100.00
64192;BME280;50497;50.720;-2.084;2023-11-21T04:51:33;103069.72;;;9.83;100.00
64192;BME280;50497;50.720;-2.084;2023-11-21T04:53:58;103093.72;;;9.96;100.00
64192;BME280;50497;50.720;-2.084;2023-11-21T04:56:24;103084.84;;;9.90;100.00
64192;BME280;50497;50.720;-2.084;2023-11-21T04:58:49;103072.34;;;9.90;100.00
64192;BME280;50497;50.720;-2.084;2023-11-21T05:01:15;103059.84;;;9.92;100.00
64192;BME280;50497;50.720;-2.084;2023-11-21T05:03:41;103053.59;;;9.95;100.00
64192;BME280;50497;50.720;-2.084;2023-11-21T05:06:06;103042.91;;;9.95;100.00
64192;BME280;50497;50.720;-2.084;2023-11-21T05:08:34;103032.19;;;10.01;100.00
64192;BME280;50497;50.720;-2.084;2023-11-21T05:11:00;102990.28;;;9.98;100.00
64192;BME280;50497;50.720;-2.084;2023-11-21T05:13:25;102976.03;;;9.99;100.00
64192;BME280;50497;50.720;-2.084;2023-11-21T05:15:56;102967.09;;;10.01;100.00
64192;BME280;50497;50.720;-2.084;2023-11-21T05:18:22;102963.50;;;10.03;100.00
64192;BME280;50497;50.720;-2.084;2023-11-21T05:20:48;102961.72;;;10.04;100.00
64192;BME280;50497;50.720;-2.084;2023-11-21T05:23:13;102949.19;;;10.07;100.00
64192;BME280;50497;50.720;-2.084;2023-11-21T05:25:38;102930.47;;;10.07;100.00
64192;BME280;50497;50.720;-2.084;2023-11-21T05:28:04;102911.72;;;10.09;100.00
64192;BME280;50497;50.720;-2.084;2023-11-21T05:30:29;102891.28;;;10.03;100.00
64192;BME280;50497;50.720;-2.084;2023-11-21T05:32:54;102895.72;;;10.04;100.00
64192;BME280;50497;50.720;-2.084;2023-11-21T05:35:20;102878.78;;;10.05;100.00
64192;BME280;50497;50.720;-2.084;2023-11-21T05:37:46;102885.00;;;10.07;100.00
64192;BME280;50497;50.720;-2.084;2023-11-21T05:40:12;102867.22;;;10.05;100.00
64192;BME280;50497;50.720;-2.084;2023-11-21T05:42:39;102845.00;;;9.98;100.00
64192;BME280;50497;50.720;-2.084;2023-11-21T05:45:04;102855.72;;;9.95;100.00
64192;BME280;50497;50.720;-2.084;2023-11-21T05:47:45;102894.84;;;10.02;100.00
64192;BME280;50497;50.720;-2.084;2023-11-21T05:50:12;102891.38;;;9.92;100.00
64192;BME280;50497;50.720;-2.084;2023-11-21T05:52:40;102912.78;;;9.91;100.00
64192;BME280;50497;50.720;-2.084;2023-11-21T05:55:06;102943.06;;;9.96;100.00
64192;BME280;50497;50.720;-2.084;2023-11-21T05:57:33;102963.53;;;10.00;100.00
64192;BME280;50497;50.720;-2.084;2023-11-21T06:00:05;102949.38;;;9.89;100.00
64192;BME280;50497;50.720;-2.084;2023-11-21T06:02:40;102984.00;;;10.03;100.00
64192;BME280;50497;50.720;-2.084;2023-11-21T06:05:09;102982.22;;;10.05;100.00
64192;BME280;50497;50.720;-2.084;2023-11-21T06:07:34;102968.84;;;10.06;100.00
64192;BME280;50497;50.720;-2.084;2023-11-21T06:10:02;102950.09;;;10.06;100.00
64192;BME280;50497;50.720;-2.084;2023-11-21T06:12:28;102942.97;;;10.07;100.00
64192;BME280;50497;50.720;-2.084;2023-11-21T06:14:53;102920.72;;;10.02;100.00
64192;BME280;50497;50.720;-2.084;2023-11-21T06:17:19;102926.94;;;10.05;100.00
64192;BME280;50497;50.720;-2.084;2023-11-21T06:19:44;102934.06;;;10.06;100.00
64192;BME280;50497;50.720;-2.084;2023-11-21T06:22:11;102924.19;;;10.11;100.00
64192;BME280;50497;50.720;-2.084;2023-11-21T06:24:36;102907.22;;;10.12;100.00
64192;BME280;50497;50.720;-2.084;2023-11-21T06:27:03;102877.09;;;9.98;100.00
64192;BME280;50497;50.720;-2.084;2023-11-21T06:29:30;102896.53;;;10.12;100.00
64192;BME280;50497;50.720;-2.084;2023-11-21T06:31:55;102868.09;;;10.05;100.00
64192;BME280;50497;50.720;-2.084;2023-11-21T06:34:20;102869.81;;;10.09;100.00
64192;BME280;50497;50.720;-2.084;2023-11-21T06:36:46;102853.84;;;10.03;100.00
64192;BME280;50497;50.720;-2.084;2023-11-21T06:39:12;102853.16;;;9.83;100.00
64192;BME280;50497;50.720;-2.084;2023-11-21T06:41:40;102842.41;;;9.90;100.00
64192;BME280;50497;50.720;-2.084;2023-11-21T06:44:05;102809.47;;;9.85;100.00
64192;BME280;50497;50.720;-2.084;2023-11-21T06:46:30;102775.75;;;9.73;100.00
64192;BME280;50497;50.720;-2.084;2023-11-21T06:48:56;102759.59;;;9.83;100.00
64192;BME280;50497;50.720;-2.084;2023-11-21T06:51:21;102735.66;;;9.73;100.00
64192;BME280;50497;50.720;-2.084;2023-11-21T06:53:46;102725.81;;;9.75;100.00
64192;BME280;50497;50.720;-2.084;2023-11-21T06:56:16;102723.25;;;9.66;100.00
64192;BME280;50497;50.720;-2.084;2023-11-21T06:58:42;102707.16;;;9.72;100.00
64192;BME280;50497;50.720;-2.084;2023-11-21T07:01:07;102695.53;;;9.76;100.00
64192;BME280;50497;50.720;-2.084;2023-11-21T07:03:33;102692.09;;;9.65;100.00
64192;BME280;50497;50.720;-2.084;2023-11-21T07:05:58;102662.91;;;9.50;100.00
64192;BME280;50497;50.720;-2.084;2023-11-21T07:08:24;102658.59;;;9.36;100.00
64192;BME280;50497;50.720;-2.084;2023-11-21T07:10:49;102666.47;;;9.47;100.00
64192;BME280;50497;50.720;-2.084;2023-11-21T07:13:14;102641.78;;;9.30;100.00
64192;BME280;50497;50.720;-2.084;2023-11-21T07:15:40;102659.44;;;9.41;100.00
64192;BME280;50497;50.720;-2.084;2023-11-21T07:18:06;102659.44;;;9.41;100.00
64192;BME280;50497;50.720;-2.084;2023-11-21T07:20:33;102664.69;;;9.48;100.00
64192;BME280;50497;50.720;-2.084;2023-11-21T07:22:58;102668.25;;;9.50;100.00
64192;BME280;50497;50.720;-2.084;2023-11-21T07:25:24;102661.28;;;9.36;100.00
64192;BME280;50497;50.720;-2.084;2023-11-21T07:27:50;102665.63;;;9.43;100.00
64192;BME280;50497;50.720;-2.084;2023-11-21T07:30:15;102665.63;;;9.45;100.00
64192;BME280;50497;50.720;-2.084;2023-11-21T07:32:41;102646.16;;;9.32;100.00
64192;BME280;50497;50.720;-2.084;2023-11-21T07:35:06;102670.09;;;9.43;100.00
64192;BME280;50497;50.720;-2.084;2023-11-21T07:37:33;102668.28;;;9.45;100.00
64192;BME280;50497;50.720;-2.084;2023-11-21T07:39:58;102649.66;;;9.37;100.00
64192;BME280;50497;50.720;-2.084;2023-11-21T07:42:24;102666.47;;;9.47;100.00
64192;BME280;50497;50.720;-2.084;2023-11-21T07:44:52;102668.28;;;9.45;100.00
64192;BME280;50497;50.720;-2.084;2023-11-21T07:47:21;102674.53;;;9.42;100.00
64192;BME280;50497;50.720;-2.084;2023-11-21T07:49:47;102659.53;;;9.31;100.00
64192;BME280;50497;50.720;-2.084;2023-11-21T07:52:13;102676.38;;;9.37;100.00
64192;BME280;50497;50.720;-2.084;2023-11-21T07:54:41;102675.44;;;9.43;100.00
64192;BME280;50497;50.720;-2.084;2023-11-21T07:57:07;102672.72;;;9.44;100.00
64192;BME280;50497;50.720;-2.084;2023-11-21T07:59:32;102669.28;;;9.36;100.00
64192;BME280;50497;50.720;-2.084;2023-11-21T08:01:58;102678.06;;;9.44;100.00
64192;BME280;50497;50.720;-2.084;2023-11-21T08:04:24;102678.16;;;9.40;100.00
64192;BME280;50497;50.720;-2.084;2023-11-21T08:06:49;102681.84;;;9.30;100.00
64192;BME280;50497;50.720;-2.084;2023-11-21T08:09:15;102670.22;;;9.32;100.00
64192;BME280;50497;50.720;-2.084;2023-11-21T08:11:42;102678.06;;;9.44;100.00
64192;BME280;50497;50.720;-2.084;2023-11-21T08:14:08;102669.28;;;9.36;100.00
64192;BME280;50497;50.720;-2.084;2023-11-21T08:16:33;102665.75;;;9.33;100.00
64192;BME280;50497;50.720;-2.084;2023-11-21T08:18:58;102651.50;;;9.32;100.00
64192;BME280;50497;50.720;-2.084;2023-11-21T08:21:24;102665.72;;;9.34;100.00
64192;BME280;50497;50.720;-2.084;2023-11-21T08:23:50;102656.91;;;9.26;100.00
64192;BME280;50497;50.720;-2.084;2023-11-21T08:26:19;102666.66;;;9.32;100.00
64192;BME280;50497;50.720;-2.084;2023-11-21T08:28:45;102671.88;;;9.41;100.00
64192;BME280;50497;50.720;-2.084;2023-11-21T08:31:10;102672.91;;;9.29;100.00
64192;BME280;50497;50.720;-2.084;2023-11-21T08:33:36;102672.03;;;9.30;100.00
64192;BME280;50497;50.720;-2.084;2023-11-21T08:36:07;102680.88;;;9.34;100.00
64192;BME280;50497;50.720;-2.084;2023-11-21T08:38:32;102661.22;;;9.39;100.00
64192;BME280;50497;50.720;-2.084;2023-11-21T08:40:59;102663.94;;;9.36;100.00
64192;BME280;50497;50.720;-2.084;2023-11-21T08:43:25;102666.56;;;9.39;100.00
64192;BME280;50497;50.720;-2.084;2023-11-21T08:45:52;102664.78;;;9.41;100.00
64192;BME280;50497;50.720;-2.084;2023-11-21T08:48:18;102674.56;;;9.39;100.00
64192;BME280;50497;50.720;-2.084;2023-11-21T08:50:43;102654.16;;;9.35;100.00
64192;BME280;50497;50.720;-2.084;2023-11-21T08:53:08;102680.78;;;9.43;100.00
64192;BME280;50497;50.720;-2.084;2023-11-21T08:55:36;102678.94;;;9.50;100.00
64192;BME280;50497;50.720;-2.084;2023-11-21T08:58:02;102674.38;;;9.58;100.00
64192;BME280;50497;50.720;-2.084;2023-11-21T09:00:30;102672.63;;;9.55;100.00
64192;BME280;50497;50.720;-2.084;2023-11-21T09:02:55;102674.31;;;9.61;100.00
64192;BME280;50497;50.720;-2.084;2023-11-21T09:05:21;102681.47;;;9.59;100.00
64192;BME280;50497;50.720;-2.084;2023-11-21T09:07:46;102685.88;;;9.65;100.00
64192;BME280;50497;50.720;-2.084;2023-11-21T09:10:13;102682.34;;;9.61;100.00
64192;BME280;50497;50.720;-2.084;2023-11-21T09:12:39;102691.09;;;9.74;100.00
64192;BME280;50497;50.720;-2.084;2023-11-21T09:15:06;102668.00;;;9.68;100.00
64192;BME280;50497;50.720;-2.084;2023-11-21T09:17:33;102700.78;;;9.83;100.00
64192;BME280;50497;50.720;-2.084;2023-11-21T09:20:02;102697.19;;;9.87;100.00
64192;BME280;50497;50.720;-2.084;2023-11-21T09:22:30;102695.34;;;9.89;100.00
64192;BME280;50497;50.720;-2.084;2023-11-21T09:24:57;102693.56;;;9.88;100.00
64192;BME280;50497;50.720;-2.084;2023-11-21T09:27:23;102697.13;;;9.90;100.00
64192;BME280;50497;50.720;-2.084;2023-11-21T09:29:48;102685.56;;;9.88;100.00
64192;BME280;50497;50.720;-2.084;2023-11-21T09:32:14;102698.81;;;9.97;100.00
64192;BME280;50497;50.720;-2.084;2023-11-21T09:34:41;102704.09;;;10.03;100.00
64192;BME280;50497;50.720;-2.084;2023-11-21T09:37:07;102701.53;;;9.94;100.00
64192;BME280;50497;50.720;-2.084;2023-11-21T09:39:33;102697.94;;;9.96;100.00
64192;BME280;50497;50.720;-2.084;2023-11-21T09:42:10;102712.84;;;10.14;100.00
64192;BME280;50497;50.720;-2.084;2023-11-21T09:47:07;102697.03;;;9.96;100.00
64192;BME280;50497;50.720;-2.084;2023-11-21T09:49:37;102721.97;;;9.99;100.00
64192;BME280;50497;50.720;-2.084;2023-11-21T09:52:04;102740.41;;;10.21;100.00
64192;BME280;50497;50.720;-2.084;2023-11-21T09:54:31;102723.56;;;10.14;100.00
64192;BME280;50497;50.720;-2.084;2023-11-21T09:57:00;102734.28;;;10.11;100.00
64192;BME280;50497;50.720;-2.084;2023-11-21T09:59:30;102741.28;;;10.22;100.00
64192;BME280;50497;50.720;-2.084;2023-11-21T10:01:56;102725.38;;;10.09;100.00
64192;BME280;50497;50.720;-2.084;2023-11-21T10:04:23;102731.63;;;10.10;100.00
64192;BME280;50497;50.720;-2.084;2023-11-21T10:06:50;102746.75;;;10.12;100.00
64192;BME280;50497;50.720;-2.084;2023-11-21T10:09:15;102752.91;;;10.17;100.00
64192;BME280;50497;50.720;-2.084;2023-11-21T10:11:41;102754.75;;;10.12;100.00
64192;BME280;50497;50.720;-2.084;2023-11-21T10:14:10;102753.03;;;10.08;100.00
64192;BME280;50497;50.720;-2.084;2023-11-21T10:16:38;102774.31;;;10.17;100.00
64192;BME280;50497;50.720;-2.084;2023-11-21T10:19:04;102756.66;;;10.03;100.00
64192;BME280;50497;50.720;-2.084;2023-11-21T10:21:32;102785.19;;;10.05;100.00
64192;BME280;50497;50.720;-2.084;2023-11-21T10:23:58;102779.03;;;9.97;100.00
64192;BME280;50497;50.720;-2.084;2023-11-21T10:26:25;102780.63;;;10.13;100.00
64192;BME280;50497;50.720;-2.084;2023-11-21T10:29:00;102778.22;;;9.90;100.00
64192;BME280;50497;50.720;-2.084;2023-11-21T10:31:29;102772.03;;;9.87;100.00
64192;BME280;50497;50.720;-2.084;2023-11-21T10:34:13;102798.56;;;10.04;100.00
64192;BME280;50497;50.720;-2.084;2023-11-21T10:36:38;102787.69;;;10.17;100.00
64192;BME280;50497;50.720;-2.084;2023-11-21T10:39:03;102792.38;;;10.00;100.00
64192;BME280;50497;50.720;-2.084;2023-11-21T10:41:29;102797.66;;;10.08;100.00
64192;BME280;50497;50.720;-2.084;2023-11-21T10:43:55;102791.25;;;10.18;100.00
64192;BME280;50497;50.720;-2.084;2023-11-21T10:46:21;102807.16;;;10.29;100.00
64192;BME280;50497;50.720;-2.084;2023-11-21T10:48:52;102783.31;;;10.12;100.00
64192;BME280;50497;50.720;-2.084;2023-11-21T10:51:17;102794.75;;;10.25;100.00
64192;BME280;50497;50.720;-2.084;2023-11-21T10:53:44;102800.00;;;10.31;100.00
64192;BME280;50497;50.720;-2.084;2023-11-21T10:56:13;102807.78;;;10.52;100.00
64192;BME280;50497;50.720;-2.084;2023-11-21T10:58:43;102806.84;;;10.55;100.00
64192;BME280;50497;50.720;-2.084;2023-11-21T11:01:09;102802.47;;;10.51;100.00
64192;BME280;50497;50.720;-2.084;2023-11-21T11:03:37;102818.31;;;10.65;100.00
64192;BME280;50497;50.720;-2.084;2023-11-21T11:06:04;102805.22;;;10.43;100.00
64192;BME280;50497;50.720;-2.084;2023-11-21T11:08:32;102805.78;;;10.67;100.00
64192;BME280;50497;50.720;-2.084;2023-11-21T11:10:59;102803.94;;;10.70;100.00
64192;BME280;50497;50.720;-2.084;2023-11-21T11:13:24;102787.06;;;10.65;100.00
64192;BME280;50497;50.720;-2.084;2023-11-21T11:15:51;102800.50;;;10.62;100.00
64192;BME280;50497;50.720;-2.084;2023-11-21T11:18:22;102800.44;;;10.65;100.00
64192;BME280;50497;50.720;-2.084;2023-11-21T11:20:48;102809.09;;;10.86;100.00
64192;BME280;50497;50.720;-2.084;2023-11-21T11:23:32;102795.56;;;10.92;100.00
64192;BME280;50497;50.720;-2.084;2023-11-21T11:26:37;102810.72;;;10.95;100.00
64192;BME280;50497;50.720;-2.084;2023-11-21T11:32:43;102809.91;;;10.89;100.00
64192;BME280;50497;50.720;-2.084;2023-11-21T11:37:47;102812.38;;;11.02;100.00
64192;BME280;50497;50.720;-2.084;2023-11-21T11:40:12;102816.97;;;10.94;100.00
64192;BME280;50497;50.720;-2.084;2023-11-21T11:42:37;102809.94;;;10.88;100.00
64192;BME280;50497;50.720;-2.084;2023-11-21T11:45:17;102825.25;;;10.78;100.00
64192;BME280;50497;50.720;-2.084;2023-11-21T11:47:47;102825.28;;;10.77;100.00
64192;BME280;50497;50.720;-2.084;2023-11-21T11:50:13;102823.47;;;10.77;100.00
64192;BME280;50497;50.720;-2.084;2023-11-21T11:52:46;102818.00;;;10.86;100.00
64192;BME280;50497;50.720;-2.084;2023-11-21T11:55:13;102826.72;;;10.99;100.00
64192;BME280;50497;50.720;-2.084;2023-11-21T11:57:41;102835.06;;;10.79;100.00
64192;BME280;50497;50.720;-2.084;2023-11-21T12:00:07;102829.91;;;10.64;100.00
64192;BME280;50497;50.720;-2.084;2023-11-21T12:02:35;102793.75;;;10.35;100.00
64192;BME280;50497;50.720;-2.084;2023-11-21T12:05:10;102818.66;;;10.40;100.00
64192;BME280;50497;50.720;-2.084;2023-11-21T12:07:56;102848.56;;;10.70;100.00
64192;BME280;50497;50.720;-2.084;2023-11-21T12:10:24;102841.59;;;10.60;100.00
64192;BME280;50497;50.720;-2.084;2023-11-21T12:15:21;102845.09;;;10.65;100.00
64192;BME280;50497;50.720;-2.084;2023-11-21T12:17:48;102853.00;;;10.74;100.00
64192;BME280;50497;50.720;-2.084;2023-11-21T12:20:15;102861.28;;;10.54;100.00
64192;BME280;50497;50.720;-2.084;2023-11-21T12:22:49;102864.91;;;10.51;100.00
64192;BME280;50497;50.720;-2.084;2023-11-21T12:25:15;102873.94;;;10.43;100.00
64192;BME280;50497;50.720;-2.084;2023-11-21T12:27:51;102869.97;;;10.71;100.00
64192;BME280;50497;50.720;-2.084;2023-11-21T12:30:19;102866.59;;;10.57;100.00
64192;BME280;50497;50.720;-2.084;2023-11-21T12:32:48;102861.22;;;10.59;100.00
64192;BME280;50497;50.720;-2.084;2023-11-21T12:35:15;102880.91;;;10.54;100.00
64192;BME280;50497;50.720;-2.084;2023-11-21T12:37:42;102883.44;;;10.64;100.00
64192;BME280;50497;50.720;-2.084;2023-11-21T12:40:09;102886.28;;;10.54;100.00
64192;BME280;50497;50.720;-2.084;2023-11-21T12:42:47;102888.13;;;10.49;100.00
64192;BME280;50497;50.720;-2.084;2023-11-21T12:47:47;102899.72;;;10.48;100.00
64192;BME280;50497;50.720;-2.084;2023-11-21T12:50:25;102914.88;;;10.51;100.00
64192;BME280;50497;50.720;-2.084;2023-11-21T12:52:59;102905.22;;;10.36;100.00
64192;BME280;50497;50.720;-2.084;2023-11-21T12:55:25;102907.91;;;10.38;100.00
64192;BME280;50497;50.720;-2.084;2023-11-21T12:57:55;102914.09;;;10.41;100.00
64192;BME280;50497;50.720;-2.084;2023-11-21T13:00:29;102916.75;;;10.44;100.00
64192;BME280;50497;50.720;-2.084;2023-11-21T13:02:57;102926.53;;;10.44;100.00
64192;BME280;50497;50.720;-2.084;2023-11-21T13:05:44;102930.97;;;10.46;100.00